Time;durP1;ratioP1;P1;durP2;ratioP2;P2;SDS_P1;SDS_P2;PMS_P1;PMS_P2;Temp;Humidity;BMP_temperature;BMP_pressure;BME280_temperature;BME280_humidity;BME280_pressure;Samples;Min_cycle;Max_cycle;Signal;HPM_P1;HPM_P2
2022/04/02 00:01:48;;;;;;;5.45;3.00;;;;;;;3.24;61.53;101457.16;5116450;28;20016;-61
2022/04/02 00:04:14;;;;;;;7.80;3.00;;;;;;;3.25;61.11;101460.66;5116434;28;20024;-61
2022/04/02 00:06:39;;;;;;;7.47;3.35;;;;;;;3.24;60.77;101459.78;5116547;28;20019;-61
2022/04/02 00:09:05;;;;;;;4.40;2.90;;;;;;;3.22;60.63;101463.16;5116192;28;20067;-62
2022/04/02 00:11:30;;;;;;;5.10;2.80;;;;;;;3.20;60.75;101465.66;5116194;28;20050;-62
2022/04/02 00:13:58;;;;;;;5.65;3.00;;;;;;;3.21;60.41;101463.94;5116206;28;20023;-62
2022/04/02 00:16:25;;;;;;;5.00;2.90;;;;;;;3.19;60.69;101462.97;5116107;28;20480;-62
2022/04/02 00:18:51;;;;;;;4.85;2.83;;;;;;;3.19;60.17;101473.44;5116207;28;20032;-62
2022/04/02 00:21:17;;;;;;;7.43;2.70;;;;;;;3.17;60.60;101475.03;5115968;28;20023;-62
2022/04/02 00:23:44;;;;;;;6.03;3.05;;;;;;;3.21;60.55;101477.00;5115962;28;20092;-62
2022/04/02 00:26:15;;;;;;;7.30;2.85;;;;;;;3.19;60.58;101471.72;5115976;27;20107;-62
2022/04/02 00:28:43;;;;;;;4.65;3.08;;;;;;;3.22;60.34;101478.81;5115988;28;20106;-62
2022/04/02 00:31:12;;;;;;;6.93;2.95;;;;;;;3.15;60.41;101476.69;5116089;28;20035;-62
2022/04/02 00:33:38;;;;;;;8.00;3.17;;;;;;;3.11;60.48;101474.75;5116106;28;20110;-62
2022/04/02 00:36:04;;;;;;;5.07;2.83;;;;;;;3.09;60.07;101465.97;5115814;28;20039;-62
2022/04/02 00:38:30;;;;;;;4.55;2.83;;;;;;;3.09;60.34;101468.56;5115695;28;20055;-62
2022/04/02 00:40:56;;;;;;;5.25;2.95;;;;;;;3.10;60.71;101468.63;5115409;28;20079;-62
2022/04/02 00:43:22;;;;;;;6.03;3.53;;;;;;;3.15;60.83;101468.88;5115748;28;20027;-61
2022/04/02 00:45:51;;;;;;;4.38;2.78;;;;;;;3.13;60.12;101466.19;5115576;28;20030;-62
2022/04/02 00:48:18;;;;;;;5.18;3.00;;;;;;;3.14;60.00;101467.09;5115469;28;20028;-62
2022/04/02 00:50:46;;;;;;;6.45;3.05;;;;;;;3.15;60.15;101468.88;5115513;28;20034;-61
2022/04/02 00:53:12;;;;;;;6.25;3.00;;;;;;;3.18;60.58;101463.81;5113839;28;20024;-62
2022/04/02 00:55:40;;;;;;;6.55;3.47;;;;;;;3.19;60.32;101462.97;5115368;28;20027;-62
2022/04/02 00:58:07;;;;;;;5.13;3.00;;;;;;;3.18;60.25;101467.31;5115401;28;20024;-62
2022/04/02 01:00:33;;;;;;;4.82;3.00;;;;;;;3.17;60.17;101465.53;5115287;28;20023;-62
2022/04/02 01:02:59;;;;;;;5.57;3.10;;;;;;;3.13;60.05;101468.81;5115601;28;20015;-61
2022/04/02 01:05:25;;;;;;;8.18;3.10;;;;;;;3.10;60.63;101463.41;5115312;28;20055;-61
2022/04/02 01:07:50;;;;;;;5.65;3.00;;;;;;;3.05;60.12;101472.72;5115009;28;20373;-62
2022/04/02 01:10:16;;;;;;;4.53;2.88;;;;;;;3.04;60.10;101470.03;5115211;28;20055;-61
2022/04/02 01:12:44;;;;;;;6.78;2.90;;;;;;;2.98;59.81;101460.19;5113843;28;20034;-62
2022/04/02 01:15:09;;;;;;;5.63;3.28;;;;;;;2.98;59.76;101476.72;5115032;28;20024;-61
2022/04/02 01:17:36;;;;;;;5.13;2.90;;;;;;;2.98;60.67;101476.72;5114998;28;20016;-61
2022/04/02 01:20:03;;;;;;;8.70;3.05;;;;;;;2.99;60.38;101480.22;5114840;28;20409;-61
2022/04/02 01:22:28;;;;;;;7.95;3.28;;;;;;;2.94;59.92;101468.66;5115000;28;20028;-62
2022/04/02 01:24:54;;;;;;;6.10;3.00;;;;;;;2.93;60.22;101466.88;5114764;28;20038;-62
2022/04/02 01:27:20;;;;;;;6.03;2.95;;;;;;;2.93;60.54;101470.38;5114774;28;20104;-62
2022/04/02 01:29:45;;;;;;;8.60;2.70;;;;;;;2.96;60.55;101467.06;5114760;28;20361;-62
2022/04/02 01:32:10;;;;;;;4.55;2.83;;;;;;;2.89;60.25;101475.38;5114600;28;20034;-62
2022/04/02 01:34:36;;;;;;;7.93;3.00;;;;;;;2.89;60.15;101464.94;5114682;28;20585;-61
2022/04/02 01:37:01;;;;;;;5.95;2.92;;;;;;;2.90;59.88;101462.38;5114546;28;20098;-62
2022/04/02 01:39:27;;;;;;;7.15;2.92;;;;;;;2.89;60.08;101463.22;5114606;28;20024;-62
2022/04/02 01:41:52;;;;;;;4.57;2.83;;;;;;;2.90;59.86;101457.16;5114156;28;20048;-62
2022/04/02 01:44:18;;;;;;;5.70;2.78;;;;;;;2.95;60.41;101458.28;5114504;28;20499;-61
2022/04/02 01:46:43;;;;;;;5.05;3.05;;;;;;;3.00;60.71;101450.72;5114347;28;20077;-61
2022/04/02 01:49:10;;;;;;;4.60;2.88;;;;;;;3.08;59.98;101461.53;5114421;28;20047;-61
2022/04/02 01:51:35;;;;;;;5.10;2.70;;;;;;;3.05;59.59;101464.00;5114350;27;20020;-62
2022/04/02 01:54:06;;;;;;;4.40;2.78;;;;;;;2.99;59.98;101469.78;5114264;28;20020;-62
2022/04/02 01:56:31;;;;;;;5.05;2.80;;;;;;;2.90;59.28;101472.81;5112999;28;20034;-62
2022/04/02 01:58:56;;;;;;;4.63;2.80;;;;;;;2.89;59.84;101467.53;5114200;28;20094;-61
2022/04/02 02:01:22;;;;;;;4.68;2.80;;;;;;;2.86;59.80;101465.66;5114027;28;20046;-61
2022/04/02 02:03:50;;;;;;;5.78;2.47;;;;;;;2.88;59.80;101473.59;5114165;28;20080;-61
2022/04/02 02:06:16;;;;;;;4.50;2.90;;;;;;;2.86;60.16;101470.88;5113988;28;20028;-61
2022/04/02 02:08:41;;;;;;;5.13;2.80;;;;;;;2.84;59.39;101477.75;5113891;28;20361;-61
2022/04/02 02:11:06;;;;;;;5.30;3.00;;;;;;;2.86;60.01;101480.41;5112366;28;20092;-61
2022/04/02 02:13:32;;;;;;;4.55;2.88;;;;;;;2.87;59.65;101477.00;5113992;28;20020;-61
2022/04/02 02:15:57;;;;;;;4.88;2.47;;;;;;;2.77;59.61;101483.44;5113918;28;20034;-61
2022/04/02 02:18:23;;;;;;;10.18;2.70;;;;;;;2.73;59.65;101479.78;5113925;28;20372;-61
2022/04/02 02:20:48;;;;;;;5.32;3.00;;;;;;;2.69;59.41;101484.75;5113726;28;20376;-62
2022/04/02 02:23:14;;;;;;;3.97;2.70;;;;;;;2.71;59.87;101486.66;5114020;28;20196;-62
2022/04/02 02:25:39;;;;;;;4.80;2.75;;;;;;;2.65;59.93;101488.03;5113626;28;20491;-61
2022/04/02 02:28:05;;;;;;;4.15;2.42;;;;;;;2.60;59.92;101477.34;5113778;28;20020;-62
2022/04/02 02:30:31;;;;;;;4.78;2.70;;;;;;;2.60;60.06;101485.16;5113685;28;20067;-61
2022/04/02 02:35:49;;;;;;;4.32;2.53;;;;;;;2.58;60.51;101483.31;5113725;28;20072;-61
2022/04/02 02:35:51;;;;;;;5.53;3.00;;;;;;;2.59;60.24;101495.53;5113568;28;20119;-62
2022/04/02 02:38:22;;;;;;;5.10;2.70;;;;;;;2.58;60.56;101498.97;5113561;28;20027;-61
2022/04/02 02:40:51;;;;;;;6.88;2.70;;;;;;;2.54;60.63;101491.78;5113240;28;20056;-62
2022/04/02 02:43:17;;;;;;;8.32;2.95;;;;;;;2.58;60.51;101493.75;5113565;28;20023;-61
2022/04/02 02:45:43;;;;;;;7.10;2.88;;;;;;;2.56;60.50;101497.97;5113519;28;20024;-62
2022/04/02 02:48:10;;;;;;;5.90;3.10;;;;;;;2.53;60.77;101501.34;5113596;28;20019;-62
2022/04/02 02:50:36;;;;;;;5.15;2.80;;;;;;;2.53;60.55;101510.84;5113485;28;20020;-62
2022/04/02 02:53:02;;;;;;;6.43;3.03;;;;;;;2.52;61.10;101502.13;5113583;28;20497;-62
2022/04/02 02:55:28;;;;;;;4.72;2.80;;;;;;;2.58;60.86;101493.75;5113681;28;20047;-62
2022/04/02 02:57:54;;;;;;;4.03;2.80;;;;;;;2.54;60.71;101491.78;5113443;28;20031;-62
2022/04/02 03:00:19;;;;;;;5.32;2.90;;;;;;;2.50;61.42;101499.44;5113307;28;20023;-62
2022/04/02 03:02:45;;;;;;;5.25;2.88;;;;;;;2.49;61.15;101489.84;5112104;28;20028;-62
2022/04/02 03:05:13;;;;;;;5.05;3.13;;;;;;;2.54;61.06;101497.00;5113501;28;20056;-62
2022/04/02 03:07:48;;;;;;;6.53;2.70;;;;;;;2.57;60.60;101497.16;5113270;28;20027;-62
2022/04/02 03:10:34;;;;;;;4.68;2.60;;;;;;;2.60;60.69;101499.94;5113371;28;20103;-62
2022/04/02 03:12:59;;;;;;;6.50;2.90;;;;;;;2.60;60.64;101499.94;5113121;28;20057;-61
2022/04/02 03:15:25;;;;;;;7.80;2.72;;;;;;;2.65;60.55;101488.03;5113230;28;20504;-62
2022/04/02 03:17:53;;;;;;;5.78;2.80;;;;;;;2.65;60.31;101488.91;5113596;28;20019;-62
2022/04/02 03:20:20;;;;;;;6.03;2.60;;;;;;;2.58;59.99;101486.81;5113075;28;20031;-62
2022/04/02 03:22:47;;;;;;;7.63;2.70;;;;;;;2.54;59.96;101489.19;5115592;28;20043;-62
2022/04/02 03:25:16;;;;;;;5.50;2.90;;;;;;;2.52;60.19;101499.50;5117154;28;20024;-62
2022/04/02 03:27:45;;;;;;;5.07;2.45;;;;;;;2.51;60.07;101502.94;5117239;28;20457;-62
2022/04/02 03:30:14;;;;;;;4.05;2.60;;;;;;;2.49;60.54;101497.66;5117140;28;20028;-62
2022/04/02 03:32:40;;;;;;;6.43;2.88;;;;;;;2.47;60.74;101498.38;5116953;27;20484;-62
2022/04/02 03:35:07;;;;;;;5.13;2.78;;;;;;;2.43;61.38;101497.31;5117061;28;20027;-62
2022/04/02 03:37:37;;;;;;;4.75;2.60;;;;;;;2.42;60.97;101497.25;5116908;28;20024;-62
2022/04/02 03:40:08;;;;;;;7.85;2.85;;;;;;;2.37;60.87;101498.72;5116581;28;20038;-62
2022/04/02 03:42:34;;;;;;;6.30;2.60;;;;;;;2.38;60.91;101504.00;5116813;28;20228;-62
2022/04/02 03:45:00;;;;;;;5.88;2.75;;;;;;;2.31;61.44;101514.91;5116808;28;20027;-62
2022/04/02 03:47:26;;;;;;;4.85;2.85;;;;;;;2.34;61.65;101508.97;5116449;28;20035;-62
2022/04/02 03:49:51;;;;;;;7.75;2.78;;;;;;;2.32;61.09;101518.44;5116634;28;20103;-62
2022/04/02 03:52:18;;;;;;;4.55;2.50;;;;;;;2.35;61.99;101524.69;5116647;28;20020;-62
2022/04/02 03:54:44;;;;;;;5.47;2.83;;;;;;;2.39;61.56;101528.34;5116712;28;20390;-62
2022/04/02 03:57:12;;;;;;;4.15;2.50;;;;;;;2.40;61.13;101527.53;5116649;27;20107;-62
2022/04/02 03:59:39;;;;;;;6.72;2.90;;;;;;;2.40;61.99;101532.75;5116440;28;20464;-62
2022/04/02 04:02:13;;;;;;;4.47;2.92;;;;;;;2.37;61.51;101533.50;5116439;28;20028;-63
2022/04/02 04:04:39;;;;;;;4.82;2.78;;;;;;;2.38;62.12;101535.28;5116474;28;20035;-62
2022/04/02 04:07:06;;;;;;;3.95;2.67;;;;;;;2.39;61.64;101531.84;5116578;28;20055;-62
2022/04/02 04:09:32;;;;;;;5.15;2.90;;;;;;;2.31;61.40;101524.44;5116352;28;20027;-62
2022/04/02 04:11:58;;;;;;;6.68;2.58;;;;;;;2.31;61.79;101530.53;5116270;28;20034;-62
2022/04/02 04:14:25;;;;;;;6.22;2.85;;;;;;;2.26;61.82;101530.28;5116506;28;20027;-62
2022/04/02 04:16:52;;;;;;;7.30;2.83;;;;;;;2.31;62.21;101540.06;5114625;28;20400;-62
2022/04/02 04:19:18;;;;;;;5.40;2.50;;;;;;;2.30;61.42;101533.06;5116109;28;20031;-62
2022/04/02 04:21:43;;;;;;;5.47;2.92;;;;;;;2.23;62.07;101542.28;5116075;28;20019;-62
2022/04/02 04:24:10;;;;;;;4.22;2.72;;;;;;;2.18;61.66;101534.19;5116053;27;20026;-62
2022/04/02 04:26:36;;;;;;;4.50;2.80;;;;;;;2.19;62.02;101542.94;5116012;28;20027;-62
2022/04/02 04:29:02;;;;;;;4.28;2.72;;;;;;;2.20;61.85;101547.31;5116010;28;20023;-62
2022/04/02 04:31:28;;;;;;;5.70;2.78;;;;;;;2.13;61.88;101540.84;5115906;28;20099;-62
2022/04/02 04:33:54;;;;;;;9.65;2.80;;;;;;;2.15;62.07;101538.34;5115503;28;20048;-62
2022/04/02 04:36:20;;;;;;;4.80;2.70;;;;;;;2.12;62.04;101543.38;5115632;28;20469;-62
2022/04/02 04:38:46;;;;;;;6.18;2.90;;;;;;;2.10;62.39;101539.78;5115858;27;20529;-62
2022/04/02 04:41:13;;;;;;;4.65;2.85;;;;;;;2.14;61.63;101549.56;5114601;28;20047;-62
2022/04/02 04:43:41;;;;;;;4.88;2.75;;;;;;;2.13;62.13;101548.69;5115611;28;20039;-62
2022/04/02 04:46:08;;;;;;;5.00;2.70;;;;;;;2.13;61.75;101555.59;5115474;28;20027;-63
2022/04/02 04:48:37;;;;;;;3.90;2.50;;;;;;;2.09;61.33;101567.56;5115572;28;20028;-62
2022/04/02 04:51:04;;;;;;;5.10;2.50;;;;;;;2.11;61.83;101562.47;5115674;28;20019;-62
2022/04/02 04:53:31;;;;;;;9.48;2.80;;;;;;;2.07;61.78;101550.97;5115477;28;20079;-62
2022/04/02 04:55:56;;;;;;;5.35;2.70;;;;;;;2.16;61.92;101563.59;5114136;28;20035;-62
2022/04/02 04:58:22;;;;;;;4.75;2.75;;;;;;;2.14;61.85;101566.13;5115457;28;20369;-62
2022/04/02 05:00:47;;;;;;;4.85;2.75;;;;;;;2.11;61.58;101563.34;5115052;28;20042;-63
2022/04/02 05:03:13;;;;;;;4.95;2.65;;;;;;;2.16;61.77;101576.63;5115192;28;20023;-62
2022/04/02 05:05:39;;;;;;;5.35;3.00;;;;;;;2.14;62.18;101580.84;5115177;28;20020;-62
2022/04/02 05:08:07;;;;;;;5.82;2.90;;;;;;;2.14;62.22;101583.47;5115384;28;20023;-62
2022/04/02 05:10:34;;;;;;;5.45;2.70;;;;;;;2.21;62.31;101583.91;5113818;28;20024;-62
2022/04/02 05:13:01;;;;;;;5.60;3.00;;;;;;;2.22;61.79;101592.63;5115116;28;20455;-62
2022/04/02 05:15:26;;;;;;;4.82;2.88;;;;;;;2.20;61.59;101589.03;5114969;28;20023;-62
2022/04/02 05:17:53;;;;;;;4.47;2.83;;;;;;;2.14;61.60;101594.81;5115031;28;20373;-62
2022/04/02 05:20:18;;;;;;;6.20;2.50;;;;;;;2.12;61.65;101592.91;5114927;28;20031;-62
2022/04/02 05:22:44;;;;;;;4.25;2.72;;;;;;;2.08;61.71;101596.16;5114333;28;20023;-62
2022/04/02 05:25:14;;;;;;;6.28;2.72;;;;;;;2.11;61.88;101604.16;5114428;28;20019;-62
2022/04/02 05:27:43;;;;;;;6.78;2.70;;;;;;;2.10;61.66;101605.88;5114406;28;20334;-62
2022/04/02 05:30:11;;;;;;;4.18;2.63;;;;;;;2.09;62.00;101603.16;5114129;28;20400;-62
2022/04/02 05:32:37;;;;;;;5.30;2.75;;;;;;;2.14;61.82;101617.34;5114180;28;20031;-62
2022/04/02 05:35:03;;;;;;;6.30;2.92;;;;;;;2.18;62.24;101617.59;5113963;28;20027;-62
2022/04/02 05:37:28;;;;;;;5.80;2.80;;;;;;;2.16;62.02;101623.56;5114126;28;20030;-62
2022/04/02 05:39:53;;;;;;;4.07;2.58;;;;;;;2.18;62.44;101628.03;5113978;28;20422;-62
2022/04/02 05:42:21;;;;;;;6.53;2.80;;;;;;;2.17;62.25;101634.06;5113699;28;20127;-62
2022/04/02 05:44:46;;;;;;;4.93;2.72;;;;;;;2.18;62.04;101630.66;5113803;28;20032;-62
2022/04/02 05:47:12;;;;;;;5.70;2.70;;;;;;;2.22;62.44;101631.72;5114417;27;20028;-61
2022/04/02 05:49:37;;;;;;;8.10;2.90;;;;;;;2.22;62.37;101639.56;5113957;28;20019;-62
2022/04/02 05:52:04;;;;;;;8.93;2.78;;;;;;;2.28;62.61;101645.13;5113755;28;20075;-62
2022/04/02 05:54:31;;;;;;;4.88;2.97;;;;;;;2.31;62.10;101640.06;5113940;28;20027;-62
2022/04/02 05:56:57;;;;;;;4.72;2.60;;;;;;;2.33;62.01;101646.28;5113563;28;20019;-62
2022/04/02 05:59:23;;;;;;;4.53;2.58;;;;;;;2.34;61.83;101645.47;5113714;28;20024;-62
2022/04/02 06:01:50;;;;;;;7.07;3.10;;;;;;;2.34;62.32;101649.78;5113121;28;20024;-62
2022/04/02 06:04:15;;;;;;;5.18;2.92;;;;;;;2.37;61.57;101656.06;5113570;28;20375;-62
2022/04/02 06:06:41;;;;;;;8.23;3.05;;;;;;;2.34;62.24;101652.41;5113378;28;20023;-62
2022/04/02 06:09:07;;;;;;;6.15;3.03;;;;;;;2.41;62.63;101655.44;5113418;28;20015;-62
2022/04/02 06:11:32;;;;;;;4.82;2.80;;;;;;;2.49;61.97;101666.31;5113482;28;20110;-62
2022/04/02 06:13:58;;;;;;;5.90;2.90;;;;;;;2.57;62.08;101662.44;5113354;28;20488;-62
2022/04/02 06:16:25;;;;;;;5.20;3.20;;;;;;;2.59;62.44;101675.56;5113161;28;20462;-63
2022/04/02 06:18:52;;;;;;;5.65;3.10;;;;;;;2.58;62.14;101666.81;5113217;28;20023;-62
2022/04/02 06:21:18;;;;;;;5.15;2.95;;;;;;;2.60;61.72;101670.41;5113217;28;20036;-62
2022/04/02 06:23:44;;;;;;;6.13;2.90;;;;;;;2.63;61.95;101675.81;5112947;27;20022;-62
2022/04/02 06:26:09;;;;;;;5.43;3.03;;;;;;;2.66;61.81;101678.59;5113197;28;20103;-62
2022/04/02 06:28:48;;;;;;;7.93;3.40;;;;;;;2.71;62.24;101669.31;5113599;28;20460;-62
2022/04/02 06:31:13;;;;;;;6.72;3.15;;;;;;;2.72;61.84;101684.13;5113835;28;20380;-63
2022/04/02 06:33:39;;;;;;;6.82;2.95;;;;;;;2.76;61.87;101682.59;5113066;28;20027;-61
2022/04/02 06:36:05;;;;;;;4.78;2.75;;;;;;;2.79;61.85;101690.63;5113095;28;20027;-62
2022/04/02 06:38:30;;;;;;;6.43;2.80;;;;;;;2.82;61.93;101693.38;5112959;28;20099;-62
2022/04/02 06:40:55;;;;;;;6.80;3.08;;;;;;;2.86;61.55;101689.22;5111766;28;20104;-62
2022/04/02 06:43:21;;;;;;;5.20;2.70;;;;;;;2.91;61.39;101690.38;5112911;28;20027;-62
2022/04/02 06:45:47;;;;;;;7.82;2.97;;;;;;;2.93;61.32;101696.59;5112934;28;20029;-63
2022/04/02 06:48:13;;;;;;;5.00;2.95;;;;;;;2.95;61.16;101697.56;5113007;28;20024;-62
2022/04/02 06:50:40;;;;;;;5.65;3.10;;;;;;;2.92;61.45;101698.31;5111425;28;20452;-62
2022/04/02 06:53:05;;;;;;;5.53;2.90;;;;;;;2.97;61.57;101704.66;5113535;28;20019;-63
2022/04/02 06:55:32;;;;;;;5.25;2.67;;;;;;;2.99;61.20;101715.19;5113260;28;20106;-63
2022/04/02 06:57:58;;;;;;;4.93;3.00;;;;;;;3.04;60.80;101716.38;5117957;28;20049;-63
2022/04/02 07:00:25;;;;;;;6.22;3.28;;;;;;;3.05;61.04;101714.66;5117424;28;20050;-62
2022/04/02 07:02:51;;;;;;;6.45;2.67;;;;;;;3.15;61.07;101722.16;5118749;28;20024;-63
2022/04/02 07:05:18;;;;;;;8.13;3.08;;;;;;;3.20;60.90;101725.91;5118746;27;20025;-62
2022/04/02 07:07:45;;;;;;;4.75;2.97;;;;;;;3.24;60.77;101718.31;5116444;28;20476;-63
2022/04/02 07:10:11;;;;;;;6.18;3.00;;;;;;;3.28;61.34;101723.72;5116941;28;20548;-63
2022/04/02 07:12:37;;;;;;;6.53;3.20;;;;;;;3.33;60.92;101732.69;5116642;28;20047;-63
2022/04/02 07:15:03;;;;;;;5.07;3.05;;;;;;;3.35;60.74;101731.97;5116955;28;20392;-63
2022/04/02 07:17:29;;;;;;;6.85;3.63;;;;;;;3.42;61.18;101728.88;5116480;28;20047;-63
2022/04/02 07:19:59;;;;;;;5.22;2.90;;;;;;;3.47;60.71;101735.25;5115629;28;20468;-62
2022/04/02 07:22:25;;;;;;;5.68;3.22;;;;;;;3.51;60.44;101741.53;5116406;28;20093;-62
2022/04/02 07:24:52;;;;;;;5.88;3.22;;;;;;;3.60;59.54;101738.50;5117043;28;20332;-63
2022/04/02 07:27:23;;;;;;;7.13;3.15;;;;;;;3.64;60.05;101741.38;5116361;28;20114;-63
2022/04/02 07:29:56;;;;;;;5.30;3.15;;;;;;;3.75;60.53;101750.66;5116615;28;20021;-63
2022/04/02 07:32:23;;;;;;;8.30;3.30;;;;;;;3.80;59.96;101748.28;5116325;28;20057;-63
2022/04/02 07:34:49;;;;;;;5.28;3.20;;;;;;;3.85;59.10;101752.03;5116515;28;20031;-63
2022/04/02 07:37:48;;;;;;;5.63;3.13;;;;;;;3.97;59.02;101760.53;5116573;28;20035;-62
2022/04/02 07:40:26;;;;;;;7.88;3.10;;;;;;;4.09;58.69;101765.50;5116266;28;20023;-62
2022/04/02 07:43:05;;;;;;;7.28;3.00;;;;;;;4.21;58.91;101766.16;5116080;28;20447;-62
2022/04/02 07:45:43;;;;;;;4.97;2.90;;;;;;;4.35;57.87;101769.44;5116261;28;20043;-62
2022/04/02 07:48:10;;;;;;;7.18;3.05;;;;;;;4.43;57.30;101773.34;5116141;28;20069;-62
2022/04/02 07:50:41;;;;;;;5.63;3.22;;;;;;;4.53;57.10;101765.13;5114847;28;20521;-62
2022/04/02 07:53:20;;;;;;;7.28;3.42;;;;;;;4.65;57.18;101777.94;5115972;28;20035;-62
2022/04/02 07:55:51;;;;;;;5.28;2.90;;;;;;;4.83;56.60;101772.72;5116079;28;20019;-63
2022/04/02 07:58:24;;;;;;;6.18;3.20;;;;;;;5.01;55.72;101778.84;5115990;28;20456;-64
2022/04/02 08:00:54;;;;;;;7.03;3.20;;;;;;;5.17;54.99;101782.19;5115832;28;20050;-63
2022/04/02 08:03:23;;;;;;;7.95;3.30;;;;;;;5.19;55.23;101778.84;5115983;28;20071;-61
2022/04/02 08:05:48;;;;;;;7.20;3.20;;;;;;;5.21;55.26;101776.28;5115502;28;20103;-61
2022/04/02 08:08:14;;;;;;;4.97;3.20;;;;;;;5.15;55.39;101781.22;5115103;28;20115;-63
2022/04/02 08:10:46;;;;;;;4.80;3.20;;;;;;;5.31;55.88;101778.53;5115707;28;20034;-62
2022/04/02 08:13:16;;;;;;;6.18;3.10;;;;;;;5.50;55.04;101780.25;5114229;28;20028;-62
2022/04/02 08:15:41;;;;;;;4.82;3.35;;;;;;;5.72;54.28;101772.53;5115513;28;20360;-61
2022/04/02 08:18:07;;;;;;;5.45;3.58;;;;;;;5.80;53.96;101778.13;5115621;28;20451;-61
2022/04/02 08:20:33;;;;;;;4.78;3.10;;;;;;;5.79;54.06;101778.97;5115285;28;20020;-62
2022/04/02 08:23:01;;;;;;;8.70;3.47;;;;;;;5.72;53.55;101793.53;5115402;28;20043;-61
2022/04/02 08:25:27;;;;;;;8.57;4.05;;;;;;;5.84;54.52;101792.28;5115185;28;20392;-62
2022/04/02 08:28:09;;;;;;;10.70;3.60;;;;;;;5.87;53.71;101785.47;5115311;28;20032;-62
2022/04/02 08:30:39;;;;;;;7.25;3.22;;;;;;;5.81;53.20;101782.56;5115299;28;20039;-62
2022/04/02 08:33:12;;;;;;;6.32;3.30;;;;;;;5.75;54.49;101788.44;5115138;28;20035;-62
2022/04/02 08:35:59;;;;;;;7.32;3.40;;;;;;;5.76;53.99;101792.84;5115212;28;20016;-62
2022/04/02 08:38:40;;;;;;;4.63;3.05;;;;;;;5.75;55.33;101796.28;5114943;28;20035;-63
2022/04/02 08:41:36;;;;;;;6.43;3.42;;;;;;;5.84;55.41;101800.16;5114723;28;20404;-62
2022/04/02 08:44:40;;;;;;;4.93;3.22;;;;;;;5.97;55.67;101802.53;5115030;28;20036;-61
2022/04/02 08:47:08;;;;;;;6.70;3.50;;;;;;;5.88;55.27;101810.84;5114893;28;20040;-62
2022/04/02 08:50:10;;;;;;;5.25;3.40;;;;;;;5.83;54.79;101816.72;5114956;28;20480;-61
2022/04/02 08:52:51;;;;;;;7.13;3.05;;;;;;;5.73;55.84;101816.28;5100353;28;20051;-62
2022/04/02 08:55:50;;;;;;;6.85;3.53;;;;;;;5.63;55.84;101821.06;5114965;28;20034;-62
2022/04/02 08:58:31;;;;;;;6.05;3.20;;;;;;;5.66;55.94;101822.09;5031682;28;20048;-62
2022/04/02 09:01:08;;;;;;;6.38;3.42;;;;;;;5.86;57.18;101822.09;5031967;28;20469;-63
2022/04/02 09:03:45;;;;;;;5.88;3.53;;;;;;;6.01;55.15;101830.72;5031957;28;20100;-62
2022/04/02 09:06:48;;;;;;;7.60;3.90;;;;;;;5.99;55.19;101830.63;5031984;28;20120;-62
2022/04/02 09:09:25;;;;;;;6.60;3.97;;;;;;;5.97;55.04;101834.91;5031720;28;20453;-62
2022/04/02 09:12:27;;;;;;;5.82;3.60;;;;;;;6.00;53.81;101844.66;5031761;28;20033;-62
2022/04/02 09:15:28;;;;;;;6.85;3.42;;;;;;;5.95;53.95;101846.16;5031474;28;20121;-63
2022/04/02 09:18:19;;;;;;;6.18;3.58;;;;;;;6.18;54.54;101837.59;5031727;28;20075;-62
2022/04/02 09:20:54;;;;;;;7.70;3.97;;;;;;;6.48;55.11;101848.56;5030178;28;20048;-62
2022/04/02 09:23:45;;;;;;;7.53;4.03;;;;;;;6.53;52.48;101840.88;5031335;28;20033;-62
2022/04/02 09:26:16;;;;;;;6.53;3.65;;;;;;;6.43;53.24;101847.47;5031406;28;20038;-62
2022/04/02 09:28:44;;;;;;;7.32;3.83;;;;;;;6.38;53.17;101851.63;5031543;28;20116;-62
2022/04/02 09:31:22;;;;;;;8.20;3.50;;;;;;;6.43;53.51;101849.19;5031184;28;20489;-62
2022/04/02 09:34:12;;;;;;;7.15;3.70;;;;;;;6.42;52.48;101855.25;5045386;28;20115;-62
2022/04/02 09:36:50;;;;;;;6.55;3.88;;;;;;;6.22;53.87;101854.38;5113819;28;20043;-62
2022/04/02 09:39:43;;;;;;;6.07;3.90;;;;;;;6.19;53.79;101862.13;5114167;28;20329;-62
2022/04/02 09:42:21;;;;;;;7.50;3.83;;;;;;;6.20;53.49;101864.78;5113551;28;20197;-62
2022/04/02 09:45:00;;;;;;;6.32;3.83;;;;;;;6.34;52.29;101856.63;5112602;28;20369;-62
2022/04/02 09:47:48;;;;;;;7.85;3.90;;;;;;;6.39;52.60;101861.28;5113597;28;20555;-62
2022/04/02 09:50:22;;;;;;;9.68;3.70;;;;;;;6.37;52.36;101854.16;5113894;28;20107;-62
2022/04/02 09:52:50;;;;;;;6.88;3.50;;;;;;;6.46;52.75;101867.69;5112142;28;20050;-62
2022/04/02 09:55:39;;;;;;;5.72;3.30;;;;;;;6.59;53.13;101867.38;5113683;28;20045;-62
2022/04/02 09:58:15;;;;;;;6.55;3.70;;;;;;;6.69;52.33;101861.72;5113711;28;20310;-62
2022/04/02 10:01:07;;;;;;;5.32;3.30;;;;;;;6.84;51.99;101857.94;5113553;28;20527;-61
2022/04/02 10:03:55;;;;;;;6.22;3.45;;;;;;;6.96;51.48;101850.56;5113478;28;20028;-62
2022/04/02 10:06:20;;;;;;;10.88;3.70;;;;;;;6.97;49.87;101860.22;5113399;28;20107;-62
2022/04/02 10:09:07;;;;;;;8.77;3.85;;;;;;;6.99;50.22;101861.22;5113271;28;20106;-62
2022/04/02 10:11:34;;;;;;;5.80;3.40;;;;;;;6.94;49.98;101855.75;5113407;28;20023;-62
2022/04/02 10:14:06;;;;;;;6.97;3.50;;;;;;;7.14;50.55;101847.78;5111786;28;20036;-63
2022/04/02 10:16:32;;;;;;;5.40;3.40;;;;;;;7.64;48.29;101849.81;5113496;28;20019;-62
2022/04/02 10:19:00;;;;;;;6.63;3.70;;;;;;;8.15;49.30;101847.34;5111691;28;20072;-63
2022/04/02 10:21:35;;;;;;;5.38;3.60;;;;;;;8.50;45.44;101846.00;5113219;28;20035;-63
2022/04/02 10:24:20;;;;;;;10.52;3.72;;;;;;;8.57;45.33;101836.59;5113171;28;20388;-62
2022/04/02 10:26:49;;;;;;;4.97;3.25;;;;;;;8.84;45.36;101836.63;5113265;28;20039;-62
2022/04/02 10:29:38;;;;;;;8.98;3.33;;;;;;;9.30;46.34;101835.50;5113176;28;20525;-62
2022/04/02 10:32:53;;;;;;;7.60;3.45;;;;;;;9.89;45.48;101825.88;5096990;28;20048;-62
2022/04/02 10:35:23;;;;;;;6.93;3.42;;;;;;;9.88;44.55;101831.97;5111758;28;20106;-62
2022/04/02 10:37:58;;;;;;;4.97;3.20;;;;;;;9.71;45.45;101820.03;5113380;28;20053;-62
2022/04/02 10:40:27;;;;;;;7.07;3.38;;;;;;;9.36;44.38;101821.59;5112947;28;20027;-62
2022/04/02 10:43:07;;;;;;;6.05;3.60;;;;;;;8.94;45.55;101828.16;5112808;28;20116;-63
2022/04/02 10:45:39;;;;;;;5.90;3.50;;;;;;;8.41;46.45;101827.25;5112892;28;20045;-63
2022/04/02 10:48:10;;;;;;;8.97;3.77;;;;;;;8.18;47.20;101828.09;5113034;28;20030;-62
2022/04/02 10:50:38;;;;;;;5.78;3.55;;;;;;;7.92;48.16;101832.41;5111572;28;20445;-62
2022/04/02 10:53:04;;;;;;;5.47;3.40;;;;;;;7.74;47.42;101841.41;5113001;28;20080;-62
2022/04/02 10:55:31;;;;;;;7.43;4.03;;;;;;;7.53;47.13;101835.31;5112901;28;20131;-63
2022/04/02 10:57:59;;;;;;;8.77;3.92;;;;;;;7.31;47.97;101843.22;5112875;28;20042;-63
2022/04/02 11:00:26;;;;;;;6.22;3.70;;;;;;;7.13;48.83;101833.75;5112765;28;20039;-62
2022/04/02 11:03:02;;;;;;;8.90;3.95;;;;;;;7.24;50.25;101840.34;5112861;28;20088;-62
2022/04/02 11:05:33;;;;;;;9.75;3.60;;;;;;;7.38;49.86;101835.63;5112761;28;20047;-62
2022/04/02 11:08:12;;;;;;;5.47;3.20;;;;;;;7.32;47.89;101829.22;5112556;28;20024;-63
2022/04/02 11:10:38;;;;;;;6.32;3.60;;;;;;;7.24;48.77;101831.56;5112685;28;20024;-62
2022/04/02 11:13:06;;;;;;;6.47;3.08;;;;;;;7.30;49.35;101844.94;5112491;28;20034;-62
2022/04/02 11:15:41;;;;;;;7.22;3.72;;;;;;;7.38;46.90;101835.63;5112745;28;20481;-62
2022/04/02 11:18:17;;;;;;;5.80;3.60;;;;;;;7.42;49.04;101840.19;5112549;28;20365;-62
2022/04/02 11:20:43;;;;;;;7.25;4.18;;;;;;;7.56;47.57;101835.44;5112700;28;20085;-62
2022/04/02 11:23:16;;;;;;;7.85;3.63;;;;;;;7.53;46.71;101828.31;5112594;28;20020;-63
2022/04/02 11:25:46;;;;;;;6.53;3.53;;;;;;;7.47;47.32;101825.47;5112713;28;20387;-62
2022/04/02 11:28:20;;;;;;;7.15;4.10;;;;;;;7.31;46.95;101830.97;5112845;28;20449;-62
2022/04/02 11:30:45;;;;;;;8.25;4.07;;;;;;;7.24;46.75;101831.56;5111449;28;20431;-62
2022/04/02 11:33:23;;;;;;;6.72;3.90;;;;;;;7.11;46.21;101837.13;5112458;28;20059;-62
2022/04/02 11:35:58;;;;;;;6.38;3.65;;;;;;;7.07;46.41;101830.88;5112369;28;20038;-62
2022/04/02 11:38:32;;;;;;;5.93;3.20;;;;;;;6.96;45.77;101834.78;5112651;28;20059;-62
2022/04/02 11:41:14;;;;;;;5.95;3.15;;;;;;;6.94;44.64;101837.38;5112197;28;20127;-62
2022/04/02 11:43:46;;;;;;;5.07;2.97;;;;;;;7.06;45.08;101838.69;5114399;28;20047;-64
2022/04/02 11:46:16;;;;;;;5.20;3.00;;;;;;;7.20;44.63;101837.53;5116018;28;20110;-63
2022/04/02 11:48:59;;;;;;;4.93;2.97;;;;;;;7.57;45.03;101837.25;5116250;28;20487;-63